Time;durP1;ratioP1;P1;durP2;ratioP2;P2;SDS_P1;SDS_P2;PMS_P1;PMS_P2;Temp;Humidity;BMP_temperature;BMP_pressure;BME280_temperature;BME280_humidity;BME280_pressure;Samples;Min_cycle;Max_cycle;Signal;HPM_P1;HPM_P2
2021/07/21 00:01:57;;;;;;;;;18.25;16.00;;;;;26.45;38.27;101511.53;5101932;27;51547;-52
2021/07/21 00:04:22;;;;;;;;;20.75;19.75;;;;;26.40;38.85;101511.00;5102149;27;45201;-53
2021/07/21 00:06:48;;;;;;;;;17.25;16.00;;;;;26.40;39.11;101513.69;5080310;28;45238;-52
2021/07/21 00:09:14;;;;;;;;;24.50;19.50;;;;;26.37;38.98;101508.53;5095062;27;45274;-53
2021/07/21 00:14:24;;;;;;;;;17.25;15.00;;;;;26.34;38.64;101508.72;5102044;27;45224;-52
2021/07/21 00:16:57;;;;;;;;;18.00;16.25;;;;;26.32;38.56;101506.16;5083821;27;45576;-53
2021/07/21 00:20:05;;;;;;;;;14.75;14.75;;;;;26.32;39.22;101508.00;5083522;27;45545;-53
2021/07/21 00:22:14;;;;;;;;;21.75;18.25;;;;;26.30;38.95;101507.22;5093246;27;45537;-50
2021/07/21 00:24:43;;;;;;;;;18.75;17.25;;;;;26.27;39.33;101503.75;5101632;27;45464;-52
2021/07/21 00:27:10;;;;;;;;;17.75;15.50;;;;;26.25;38.83;101505.72;5092685;27;45252;-52
2021/07/21 00:29:36;;;;;;;;;15.75;14.50;;;;;26.21;39.09;101504.22;5101767;27;45228;-52
2021/07/21 00:32:03;;;;;;;;;16.50;16.00;;;;;26.21;39.23;101504.22;5087780;27;47250;-53
2021/07/21 00:34:29;;;;;;;;;17.00;15.25;;;;;26.18;39.20;101514.34;5102785;27;45310;-53
2021/07/21 00:36:54;;;;;;;;;18.25;14.25;;;;;26.18;39.38;101517.88;5095825;27;45411;-53
2021/07/21 00:39:19;;;;;;;;;18.75;17.50;;;;;26.17;38.99;101515.28;5105006;27;45330;-52
2021/07/21 00:41:46;;;;;;;;;20.50;17.25;;;;;26.14;39.55;101518.19;5093314;27;45596;-53
2021/07/21 00:44:12;;;;;;;;;15.50;14.75;;;;;26.14;39.19;101521.75;5101743;27;45278;-53
2021/07/21 00:46:38;;;;;;;;;15.25;13.50;;;;;26.11;39.18;101521.94;5101878;27;45299;-53
2021/07/21 00:49:03;;;;;;;;;18.25;17.75;;;;;26.06;39.41;101516.91;5079894;28;45703;-49
2021/07/21 00:51:29;;;;;;;;;19.50;16.25;;;;;26.06;39.61;101518.69;5094604;27;46234;-51
2021/07/21 00:53:54;;;;;;;;;15.50;15.00;;;;;26.02;39.58;101509.94;5101717;27;45264;-52
2021/07/21 00:56:19;;;;;;;;;15.75;15.50;;;;;26.02;39.16;101518.00;5101519;27;45371;-53
2021/07/21 00:58:45;;;;;;;;;16.75;15.75;;;;;26.01;39.50;101515.44;5083083;27;45388;-52
2021/07/21 01:01:11;;;;;;;;;18.75;14.75;;;;;25.99;39.85;101517.34;5101416;27;45342;-51
2021/07/21 01:03:36;;;;;;;;;15.50;15.50;;;;;25.94;39.45;101515.84;5079545;28;45707;-54
2021/07/21 01:06:04;;;;;;;;;17.75;14.25;;;;;25.92;39.86;101517.78;5094243;27;45464;-52
2021/07/21 01:08:30;;;;;;;;;15.25;14.50;;;;;25.90;40.06;101511.63;5101261;27;45431;-54
2021/07/21 01:11:25;;;;;;;;;16.00;15.75;;;;;25.88;39.76;101523.47;5101001;27;46951;-50
2021/07/21 01:13:53;;;;;;;;;18.50;16.25;;;;;25.85;39.65;101523.66;5062350;28;45354;-54
2021/07/21 01:16:27;;;;;;;;;18.25;17.50;;;;;25.83;39.96;101521.06;5098591;27;45487;-53
2021/07/21 01:19:10;;;;;;;;;21.00;18.00;;;;;25.80;40.28;101529.38;5101287;27;45398;-52
2021/07/21 01:22:03;;;;;;;;;15.25;13.75;;;;;25.76;40.21;101519.75;5100773;27;45331;-53
2021/07/21 01:24:28;;;;;;;;;17.00;14.50;;;;;25.73;40.15;101522.66;5082380;27;45348;-53
2021/07/21 01:27:02;;;;;;;;;19.25;16.50;;;;;25.71;39.84;101528.16;5101023;27;45479;-54
2021/07/21 01:29:29;;;;;;;;;18.75;14.75;;;;;25.66;40.27;101519.53;5100920;27;45343;-54
2021/07/21 01:31:57;;;;;;;;;18.25;17.75;;;;;25.66;40.27;101527.59;5068831;27;48643;-52
2021/07/21 01:34:26;;;;;;;;;15.50;15.50;;;;;25.63;40.25;101522.41;5100999;27;45351;-53
2021/07/21 01:36:55;;;;;;;;;15.50;15.50;;;;;25.61;40.14;101525.19;5100751;27;45327;-53
2021/07/21 01:39:31;;;;;;;;;19.25;16.25;;;;;25.58;40.09;101524.53;5100984;27;45327;-54
2021/07/21 01:42:07;;;;;;;;;16.00;14.50;;;;;25.56;40.29;101529.13;5100496;27;45431;-52
2021/07/21 01:44:37;;;;;;;;;16.50;15.50;;;;;25.54;40.53;101529.25;5100592;27;45260;-52
2021/07/21 01:47:03;;;;;;;;;18.25;18.00;;;;;25.52;40.06;101528.50;5100876;27;45260;-50
2021/07/21 01:49:39;;;;;;;;;17.50;16.00;;;;;25.50;40.42;101527.72;5100631;27;45514;-50
2021/07/21 01:52:08;;;;;;;;;14.50;14.50;;;;;25.47;40.65;101527.91;5082337;27;48495;-50
2021/07/21 01:54:34;;;;;;;;;16.00;14.50;;;;;25.44;40.73;101525.44;5100335;27;45223;-53
2021/07/21 01:57:01;;;;;;;;;18.25;18.00;;;;;25.43;40.37;101527.28;5100764;27;45237;-49
2021/07/21 01:59:28;;;;;;;;;17.00;15.25;;;;;25.42;40.63;101527.34;5100437;27;45510;-49
2021/07/21 02:01:55;;;;;;;;;17.00;13.25;;;;;25.40;40.60;101537.38;5078716;28;46840;-53
2021/07/21 02:04:22;;;;;;;;;13.75;11.75;;;;;25.39;40.49;101525.72;5094482;27;45987;-51
2021/07/21 02:06:48;;;;;;;;;20.25;18.25;;;;;25.36;40.96;101533.09;5092623;27;45215;-53
2021/07/21 02:09:14;;;;;;;;;20.75;16.25;;;;;25.34;41.16;101540.41;5100445;27;45506;-50
2021/07/21 02:11:40;;;;;;;;;18.00;18.00;;;;;25.33;40.72;101541.38;5064695;27;45463;-54
2021/07/21 02:14:07;;;;;;;;;19.00;16.50;;;;;25.28;41.19;101542.53;5100113;27;45624;-49
2021/07/21 02:16:35;;;;;;;;;19.00;17.25;;;;;25.24;40.96;101535.59;5085215;27;45338;-49
2021/07/21 02:19:03;;;;;;;;;16.25;15.00;;;;;25.23;41.15;101539.28;5085631;27;45421;-53
2021/07/21 02:21:31;;;;;;;;;20.25;17.75;;;;;25.25;40.69;101541.88;5085097;27;47735;-54
2021/07/21 02:23:58;;;;;;;;;18.00;17.50;;;;;25.19;40.70;101543.09;5104067;27;45305;-51
2021/07/21 02:26:24;;;;;;;;;18.25;16.00;;;;;25.18;41.05;101545.91;5103763;27;45284;-52
2021/07/21 02:28:51;;;;;;;;;18.75;16.00;;;;;25.15;40.71;101550.50;5103884;27;45265;-52
2021/07/21 02:31:31;;;;;;;;;18.25;18.25;;;;;25.12;40.80;101541.78;5103591;27;46133;-53
2021/07/21 02:34:02;;;;;;;;;17.00;17.00;;;;;25.12;41.14;101550.72;5103847;27;45288;-52
2021/07/21 02:36:33;;;;;;;;;19.50;18.75;;;;;25.10;41.24;101555.31;5103694;27;45295;-52
2021/07/21 02:38:59;;;;;;;;;20.00;18.00;;;;;25.08;41.17;101551.88;5103655;27;45412;-52
2021/07/21 02:41:26;;;;;;;;;16.25;16.25;;;;;25.06;41.25;101552.94;5103192;27;45397;-52
2021/07/21 02:43:52;;;;;;;;;20.00;18.25;;;;;25.04;41.25;101549.47;5103515;27;45240;-54
2021/07/21 02:46:17;;;;;;;;;19.00;17.50;;;;;25.01;41.51;101550.53;5103624;27;45431;-54
2021/07/21 02:48:47;;;;;;;;;19.25;19.25;;;;;24.98;41.39;101535.44;5103599;27;45418;-56
2021/07/21 02:51:24;;;;;;;;;21.00;18.00;;;;;24.92;41.53;101533.13;5103395;27;46340;-59
2021/07/21 02:53:56;;;;;;;;;16.25;15.50;;;;;24.94;41.30;101544.69;5103502;27;45332;-58
2021/07/21 02:56:25;;;;;;;;;20.00;19.00;;;;;24.92;41.90;101534.97;5103417;27;45403;-52
2021/07/21 02:59:01;;;;;;;;;21.25;17.75;;;;;24.90;41.63;101551.19;5103240;27;45384;-53
2021/07/21 03:01:29;;;;;;;;;19.00;17.25;;;;;24.86;41.72;101543.41;5103299;27;46162;-52
2021/07/21 03:03:55;;;;;;;;;17.25;17.00;;;;;24.85;41.66;101539.00;5103171;27;45330;-53
2021/07/21 03:06:24;;;;;;;;;20.00;20.00;;;;;24.82;41.46;101535.53;5103448;27;45296;-53
2021/07/21 03:08:51;;;;;;;;;19.25;18.00;;;;;24.79;41.73;101537.53;5084926;27;45481;-52
2021/07/21 03:11:19;;;;;;;;;25.00;20.00;;;;;24.75;42.11;101542.25;5102918;27;46614;-52
2021/07/21 03:13:54;;;;;;;;;19.50;16.75;;;;;24.70;41.91;101540.81;5102812;27;45243;-51
2021/07/21 03:16:29;;;;;;;;;17.50;16.50;;;;;24.71;41.76;101547.91;5081533;28;45271;-52
2021/07/21 03:19:00;;;;;;;;;18.50;17.75;;;;;24.69;41.76;101549.81;5102839;27;45594;-54
2021/07/21 03:21:27;;;;;;;;;22.75;19.75;;;;;24.66;41.76;101553.56;5102438;27;46297;-54
2021/07/21 03:23:53;;;;;;;;;21.75;19.75;;;;;24.63;41.84;101551.03;5103196;27;45428;-54
2021/07/21 03:26:20;;;;;;;;;18.75;18.00;;;;;24.63;42.03;101551.03;5081672;27;45332;-53
2021/07/21 03:28:48;;;;;;;;;21.50;18.50;;;;;24.60;42.01;101551.22;5102840;27;45236;-54
2021/07/21 03:31:15;;;;;;;;;21.25;18.00;;;;;24.59;42.01;101554.84;5102673;27;45485;-54
2021/07/21 03:33:44;;;;;;;;;17.50;17.25;;;;;24.56;42.11;101555.91;5084442;27;45670;-53
2021/07/21 03:36:11;;;;;;;;;22.75;18.25;;;;;24.55;41.68;101561.38;5102800;27;45269;-54
2021/07/21 03:38:37;;;;;;;;;19.00;17.50;;;;;24.53;41.93;101557.91;5102772;27;45462;-53
2021/07/21 03:41:03;;;;;;;;;22.50;19.25;;;;;24.50;42.09;101559.84;5102237;27;47647;-53
2021/07/21 03:43:29;;;;;;;;;22.75;19.25;;;;;24.49;42.05;101565.31;5102718;27;45232;-52
2021/07/21 03:45:57;;;;;;;;;18.75;17.00;;;;;24.47;42.38;101567.22;5102675;27;45278;-53
2021/07/21 03:48:24;;;;;;;;;22.25;20.75;;;;;24.44;42.33;101573.63;5102937;27;45224;-52
2021/07/21 03:50:53;;;;;;;;;20.25;17.25;;;;;24.41;42.10;101564.91;5102374;27;45426;-53
2021/07/21 03:53:18;;;;;;;;;21.50;19.50;;;;;24.41;42.39;101568.44;5102642;27;45496;-53
2021/07/21 03:55:44;;;;;;;;;18.25;18.00;;;;;24.40;42.15;101568.53;5102316;27;45346;-53
2021/07/21 03:58:09;;;;;;;;;23.00;20.50;;;;;24.38;42.45;101570.44;5102382;27;45475;-52
2021/07/21 04:00:35;;;;;;;;;19.25;19.25;;;;;24.33;42.46;101560.00;5102237;27;45268;-53
2021/07/21 04:03:02;;;;;;;;;23.75;23.00;;;;;24.34;42.09;101567.09;5102392;27;45275;-54
2021/07/21 04:05:30;;;;;;;;;23.75;20.25;;;;;24.33;42.40;101563.53;5102348;27;45239;-54
2021/07/21 04:07:57;;;;;;;;;21.00;20.75;;;;;24.31;42.43;101570.81;5102383;27;45328;-52
2021/07/21 04:10:23;;;;;;;;;23.25;22.00;;;;;24.29;42.27;101566.50;5101727;27;46019;-54
2021/07/21 04:12:52;;;;;;;;;21.50;19.00;;;;;24.27;42.79;101563.03;5101960;27;45464;-53
2021/07/21 04:15:23;;;;;;;;;24.25;22.00;;;;;24.26;42.62;101574.72;5102190;27;45363;-53
2021/07/21 04:17:52;;;;;;;;;24.75;22.00;;;;;24.25;42.90;101573.88;5102054;27;45458;-57
2021/07/21 04:20:19;;;;;;;;;28.50;22.25;;;;;24.21;42.76;101572.31;5101808;27;46145;-51
2021/07/21 04:22:45;;;;;;;;;23.25;21.75;;;;;24.21;42.64;101583.03;5102019;27;45214;-48
2021/07/21 04:25:12;;;;;;;;;21.50;19.00;;;;;24.20;42.53;101585.81;5101877;27;45334;-51
2021/07/21 04:27:40;;;;;;;;;23.00;18.50;;;;;24.18;42.67;101580.56;5101765;27;45527;-50
2021/07/21 04:30:06;;;;;;;;;28.00;24.25;;;;;24.15;42.68;101583.41;5101578;27;45370;-50
2021/07/21 04:32:32;;;;;;;;;30.00;24.25;;;;;24.15;42.89;101588.78;5101778;27;45211;-54
2021/07/21 04:34:58;;;;;;;;;24.75;21.50;;;;;24.13;42.84;101591.56;5101852;27;45290;-50
2021/07/21 04:37:24;;;;;;;;;26.50;24.00;;;;;24.11;42.88;101589.91;5101439;27;45520;-52
2021/07/21 04:39:54;;;;;;;;;24.25;23.75;;;;;24.10;42.65;101591.75;5101246;27;45347;-52
2021/07/21 04:42:20;;;;;;;;;21.50;17.75;;;;;24.09;42.94;101592.69;5101603;27;45428;-51
2021/07/21 04:44:46;;;;;;;;;23.50;21.00;;;;;24.05;42.81;101583.09;5101677;27;45494;-54
2021/07/21 04:47:12;;;;;;;;;23.75;23.25;;;;;24.06;43.18;101592.00;5101805;27;45480;-56
2021/07/21 04:49:41;;;;;;;;;25.25;20.75;;;;;24.04;43.06;101585.84;5101311;27;45266;-51
2021/07/21 04:52:07;;;;;;;;;24.75;22.75;;;;;24.02;43.05;101594.00;5083221;27;46251;-51
2021/07/21 04:54:33;;;;;;;;;25.00;22.75;;;;;24.00;43.28;101596.78;5101437;27;45262;-51
2021/07/21 04:56:59;;;;;;;;;24.75;23.25;;;;;23.99;43.26;101596.88;5079634;28;45382;-49
2021/07/21 04:59:24;;;;;;;;;27.25;24.25;;;;;23.98;43.28;101595.13;5078518;28;47580;-51
2021/07/21 05:01:51;;;;;;;;;29.25;24.50;;;;;23.97;43.21;101596.06;5093454;27;45384;-50
2021/07/21 05:04:17;;;;;;;;;25.25;23.75;;;;;23.96;43.52;101602.38;5101298;27;45424;-51
2021/07/21 05:06:43;;;;;;;;;24.50;23.25;;;;;23.94;43.30;101602.50;5101293;27;45239;-58
2021/07/21 05:09:09;;;;;;;;;30.00;25.25;;;;;23.94;43.79;101612.38;5087931;27;45383;-51
2021/07/21 05:11:34;;;;;;;;;24.50;23.25;;;;;23.94;43.52;101612.38;5066463;27;45488;-52
2021/07/21 05:13:59;;;;;;;;;28.25;23.50;;;;;23.94;43.33;101615.91;5094730;27;45504;-48
2021/07/21 05:16:25;;;;;;;;;24.00;24.00;;;;;23.94;43.71;101620.41;5088578;27;45308;-52
2021/07/21 05:18:50;;;;;;;;;27.75;24.25;;;;;23.92;43.61;101630.38;5094227;27;45185;-51
2021/07/21 05:21:16;;;;;;;;;25.50;23.00;;;;;23.92;43.68;101631.22;5088873;27;45308;-53
2021/07/21 05:23:42;;;;;;;;;26.50;25.25;;;;;23.91;44.08;101632.19;5087586;27;45419;-51
2021/07/21 05:26:08;;;;;;;;;23.25;21.50;;;;;23.92;43.72;101641.09;5086662;27;45287;-50
2021/07/21 05:28:39;;;;;;;;;25.75;22.50;;;;;23.91;43.69;101634.88;5081630;27;47038;-49
2021/07/21 05:31:04;;;;;;;;;29.75;28.75;;;;;23.91;43.86;101633.97;5097215;27;45442;-50
2021/07/21 05:33:31;;;;;;;;;28.50;24.00;;;;;23.91;44.06;101640.25;5080984;27;45516;-53
2021/07/21 05:35:57;;;;;;;;;26.25;21.25;;;;;23.91;43.70;101639.34;5094044;27;45574;-52
2021/07/21 05:38:22;;;;;;;;;28.50;25.00;;;;;23.91;44.00;101642.00;5093153;27;45355;-54
2021/07/21 05:40:48;;;;;;;;;27.00;25.75;;;;;23.92;44.02;101641.09;5085362;27;45418;-60
2021/07/21 05:43:13;;;;;;;;;30.25;25.75;;;;;23.91;44.14;101637.56;5071991;28;45491;-60
2021/07/21 05:45:38;;;;;;;;;29.50;24.75;;;;;23.93;44.08;101635.63;5086499;27;45533;-59
2021/07/21 05:48:04;;;;;;;;;22.25;21.50;;;;;23.96;44.33;101654.28;5087978;27;46541;-60
2021/07/21 05:50:30;;;;;;;;;29.00;26.50;;;;;23.98;44.42;101652.34;5079392;27;45332;-56
2021/07/21 05:52:56;;;;;;;;;29.25;26.25;;;;;23.99;44.30;101648.72;5092893;27;45323;-66
2021/07/21 05:55:22;;;;;;;;;30.50;22.75;;;;;24.01;44.37;101654.00;5080703;27;45201;-66
2021/07/21 05:57:47;;;;;;;;;25.50;25.00;;;;;24.02;44.60;101655.72;5062008;28;46860;-66
2021/07/21 06:00:13;;;;;;;;;25.50;23.50;;;;;24.04;44.66;101661.00;5080668;27;45114;-66
2021/07/21 06:02:39;;;;;;;;;27.50;26.00;;;;;24.02;44.66;101648.56;5093503;27;45421;-65
2021/07/21 06:05:08;;;;;;;;;27.00;25.25;;;;;24.06;44.49;101651.91;5080633;27;45630;-66
2021/07/21 06:07:34;;;;;;;;;30.00;27.00;;;;;24.08;44.54;101659.91;5093462;27;46273;-67
2021/07/21 06:09:59;;;;;;;;;28.75;27.50;;;;;24.09;44.67;101653.59;5094228;27;45271;-67
2021/07/21 06:12:25;;;;;;;;;30.50;26.75;;;;;24.09;44.47;101651.75;5100456;27;45281;-67
2021/07/21 06:14:51;;;;;;;;;27.00;24.50;;;;;24.11;44.67;101654.34;5097346;27;45524;-66
2021/07/21 06:17:16;;;;;;;;;33.00;29.00;;;;;24.11;44.62;101662.41;5080330;27;46147;-65
2021/07/21 06:19:42;;;;;;;;;29.00;28.00;;;;;24.12;44.60;101654.25;5096149;27;45294;-71
2021/07/21 06:22:08;;;;;;;;;62.25;48.50;;;;;24.13;44.65;101666.72;5100533;27;45236;-68
2021/07/21 06:24:34;;;;;;;;;29.00;26.50;;;;;24.14;44.79;101675.66;5099541;27;45234;-69
2021/07/21 06:27:00;;;;;;;;;40.50;32.50;;;;;24.14;44.90;101675.66;5100172;27;45232;-70
2021/07/21 06:29:27;;;;;;;;;35.75;31.00;;;;;24.15;44.75;101678.25;5099951;27;45417;-69
2021/07/21 06:31:52;;;;;;;;;31.00;27.25;;;;;24.15;44.79;101682.72;5100111;27;45426;-70
2021/07/21 06:34:17;;;;;;;;;29.75;28.75;;;;;24.15;45.05;101686.31;5097395;27;45637;-69
2021/07/21 06:36:43;;;;;;;;;29.00;26.25;;;;;24.14;44.82;101689.09;5081705;27;46117;-69
2021/07/21 06:39:09;;;;;;;;;40.50;33.25;;;;;24.16;44.89;101689.84;5099346;27;45375;-69
2021/07/21 06:41:35;;;;;;;;;34.00;30.25;;;;;24.15;44.73;101690.78;5100169;27;45341;-62
2021/07/21 06:44:00;;;;;;;;;34.75;32.00;;;;;24.16;45.26;101689.84;5088317;27;45292;-68
2021/07/21 06:46:27;;;;;;;;;30.50;28.25;;;;;24.20;44.85;101696.78;5087635;27;46341;-67
2021/07/21 06:48:53;;;;;;;;;34.00;28.50;;;;;24.17;44.91;101691.56;5079538;27;45269;-67
2021/07/21 06:51:19;;;;;;;;;27.75;22.75;;;;;24.22;44.92;101702.94;5079574;28;45303;-67
2021/07/21 06:53:45;;;;;;;;;30.75;29.00;;;;;24.24;45.11;101700.13;5074312;27;45366;-67
2021/07/21 06:56:10;;;;;;;;;32.50;30.25;;;;;24.16;44.96;101689.84;5099736;27;46168;-68
2021/07/21 06:58:36;;;;;;;;;29.25;25.00;;;;;24.25;44.87;101705.44;5099661;27;45228;-68
2021/07/21 07:01:01;;;;;;;;;32.75;29.00;;;;;24.25;44.74;101700.09;5100777;27;45496;-68
2021/07/21 07:03:26;;;;;;;;;29.75;24.25;;;;;24.28;44.88;101707.94;5103344;27;45228;-68
2021/07/21 07:05:54;;;;;;;;;30.25;28.25;;;;;24.30;44.81;101702.47;5103421;27;46114;-68
2021/07/21 07:08:19;;;;;;;;;25.75;24.25;;;;;24.32;44.83;101706.81;5102968;27;45516;-69
2021/07/21 07:10:44;;;;;;;;;38.00;32.75;;;;;24.35;44.68;101703.09;5092822;27;45485;-69
2021/07/21 07:13:10;;;;;;;;;28.00;25.00;;;;;24.38;44.61;101696.66;5093808;27;45572;-69
2021/07/21 07:15:35;;;;;;;;;30.25;25.00;;;;;24.38;44.71;101700.22;5085083;27;47223;-69
2021/07/21 07:18:00;;;;;;;;;29.00;26.75;;;;;24.40;44.65;101703.72;5098561;27;45326;-69
2021/07/21 07:20:26;;;;;;;;;26.25;22.50;;;;;24.42;45.05;101700.94;5074203;27;45512;-69
2021/07/21 07:22:54;;;;;;;;;25.75;24.00;;;;;24.41;44.61;101697.34;5086284;27;45490;-69
2021/07/21 07:25:19;;;;;;;;;27.00;25.00;;;;;24.46;44.70;101699.78;5082425;27;45288;-69
2021/07/21 07:27:44;;;;;;;;;30.00;23.00;;;;;24.47;44.49;101699.69;5082300;27;45233;-69
2021/07/21 07:30:11;;;;;;;;;29.00;27.75;;;;;24.51;44.78;101703.06;5082731;27;45224;-69
2021/07/21 07:32:37;;;;;;;;;31.50;27.75;;;;;24.54;44.39;101702.91;5082388;27;45484;-69
2021/07/21 07:35:03;;;;;;;;;30.50;26.50;;;;;24.57;44.78;101712.59;5082425;28;46964;-68
2021/07/21 07:37:29;;;;;;;;;30.00;25.50;;;;;24.60;44.72;101707.03;5082179;27;45245;-69
2021/07/21 07:39:54;;;;;;;;;28.00;25.75;;;;;24.64;44.77;101711.28;5082454;28;45288;-69
2021/07/21 07:42:19;;;;;;;;;29.75;25.25;;;;;24.66;44.68;101706.72;5082141;27;45308;-68
2021/07/21 07:44:45;;;;;;;;;29.00;25.75;;;;;24.66;44.85;101702.19;5082352;27;45300;-68
2021/07/21 07:47:11;;;;;;;;;28.25;25.00;;;;;24.73;44.63;101707.22;5082066;28;45343;-68
2021/07/21 07:49:36;;;;;;;;;28.00;26.75;;;;;24.76;44.63;101712.41;5082532;27;45429;-69
2021/07/21 07:52:02;;;;;;;;;28.50;24.75;;;;;24.78;44.36;101702.44;5081918;28;45240;-68
2021/07/21 07:54:27;;;;;;;;;28.00;25.50;;;;;24.81;44.58;101702.25;5073272;27;46812;-68
2021/07/21 07:56:53;;;;;;;;;27.50;24.25;;;;;24.84;44.21;101707.44;5084005;27;45244;-68
2021/07/21 07:59:18;;;;;;;;;29.25;25.25;;;;;24.86;44.20;101697.47;5102757;27;45734;-70
2021/07/21 08:01:44;;;;;;;;;29.50;27.00;;;;;24.89;44.57;101708.06;5102364;27;45350;-68
2021/07/21 08:04:09;;;;;;;;;27.75;25.50;;;;;24.95;44.44;101706.81;5080808;28;45350;-69
2021/07/21 08:06:34;;;;;;;;;30.25;27.00;;;;;24.96;44.51;101697.78;5097447;27;45330;-69
2021/07/21 08:09:01;;;;;;;;;27.00;25.25;;;;;25.02;44.18;101701.94;5102471;27;45411;-68
2021/07/21 08:11:26;;;;;;;;;27.50;25.25;;;;;25.06;44.56;101711.56;5083739;27;45288;-68
2021/07/21 08:13:52;;;;;;;;;27.00;23.50;;;;;25.10;44.11;101710.41;5101150;27;45573;-68
2021/07/21 08:16:17;;;;;;;;;34.75;27.25;;;;;25.14;44.13;101706.56;5102053;27;45264;-68
2021/07/21 08:18:42;;;;;;;;;25.50;24.75;;;;;25.18;44.09;101707.25;5102453;27;45299;-68
2021/07/21 08:21:08;;;;;;;;;29.75;24.50;;;;;25.22;43.84;101701.59;5101737;27;45321;-68
2021/07/21 08:23:34;;;;;;;;;28.25;25.00;;;;;25.25;44.38;101709.47;5102080;27;46026;-68
2021/07/21 08:25:59;;;;;;;;;25.50;21.00;;;;;25.31;43.85;101711.78;5066330;27;45580;-68
2021/07/21 08:28:25;;;;;;;;;34.00;26.75;;;;;25.36;43.68;101703.47;5102013;27;45261;-68
2021/07/21 08:30:51;;;;;;;;;26.50;23.50;;;;;25.40;44.09;101710.38;5101862;27;45345;-69
2021/07/21 08:33:16;;;;;;;;;29.50;27.50;;;;;25.44;44.31;101711.91;5102014;27;45343;-69
2021/07/21 08:35:44;;;;;;;;;32.50;27.50;;;;;25.47;43.56;101710.84;5101867;27;45482;-68
2021/07/21 08:38:10;;;;;;;;;34.00;30.25;;;;;25.53;44.04;101710.47;5101999;27;45255;-68
2021/07/21 08:40:38;;;;;;;;;22.00;19.25;;;;;25.58;43.62;101713.75;5101408;27;45393;-69
2021/07/21 08:43:04;;;;;;;;;26.00;24.50;;;;;25.62;43.68;101707.22;5101431;27;45345;-70
2021/07/21 08:45:30;;;;;;;;;33.25;24.50;;;;;25.68;43.83;101715.88;5101397;27;45413;-71
2021/07/21 08:47:55;;;;;;;;;26.75;23.75;;;;;25.72;43.53;101709.31;5101945;27;45264;-68
2021/07/21 08:50:22;;;;;;;;;28.00;25.50;;;;;25.78;43.48;101703.56;5101503;27;45510;-69
2021/07/21 08:52:48;;;;;;;;;29.50;24.50;;;;;25.84;43.91;101710.41;5101671;27;45304;-69
2021/07/21 08:55:14;;;;;;;;;29.50;24.25;;;;;25.88;43.47;101706.53;5101037;27;45331;-69
2021/07/21 08:57:40;;;;;;;;;24.75;24.00;;;;;25.94;43.92;101706.13;5101725;27;45291;-68
2021/07/21 09:00:11;;;;;;;;;32.25;26.25;;;;;26.00;43.87;101705.75;5101304;27;45260;-69
2021/07/21 09:02:38;;;;;;;;;25.50;24.75;;;;;26.06;43.46;101699.13;5101378;27;47382;-69
2021/07/21 09:05:05;;;;;;;;;31.25;25.50;;;;;26.10;43.18;101700.63;5101278;27;45324;-68
2021/07/21 09:07:30;;;;;;;;;24.75;20.75;;;;;26.17;43.76;101699.28;5101463;27;45203;-68
2021/07/21 09:09:56;;;;;;;;;25.00;23.50;;;;;26.22;43.32;101701.69;5100745;27;45180;-69
2021/07/21 09:12:21;;;;;;;;;22.25;20.00;;;;;26.27;43.44;101705.78;5101061;27;45212;-68
2021/07/21 09:14:46;;;;;;;;;22.50;20.75;;;;;26.33;43.37;101703.69;5101175;27;45222;-68
2021/07/21 09:17:17;;;;;;;;;19.75;19.00;;;;;26.36;42.76;101700.78;5101444;27;45304;-68
2021/07/21 09:19:48;;;;;;;;;21.00;17.00;;;;;26.40;42.66;101703.19;5101010;27;45445;-68
2021/07/21 09:22:26;;;;;;;;;27.50;22.50;;;;;26.50;42.59;101705.25;5100844;27;48247;-68
2021/07/21 09:25:11;;;;;;;;;23.75;21.75;;;;;26.55;43.14;101703.97;5100734;27;45415;-68
2021/07/21 09:27:39;;;;;;;;;21.25;21.25;;;;;26.61;42.50;101703.53;5100989;27;45358;-68
2021/07/21 09:30:06;;;;;;;;;19.50;19.00;;;;;26.68;42.53;101708.53;5101075;27;45238;-68
2021/07/21 09:32:48;;;;;;;;;24.00;22.50;;;;;26.71;42.54;101702.94;5082269;27;48200;-67
2021/07/21 09:35:15;;;;;;;;;26.50;24.75;;;;;26.79;42.70;101708.69;5100807;27;45181;-68
2021/07/21 09:37:40;;;;;;;;;23.25;22.00;;;;;26.84;42.73;101701.19;5100925;27;45177;-68
2021/07/21 09:40:06;;;;;;;;;25.50;22.75;;;;;26.90;42.92;101705.28;5100503;27;45425;-67
2021/07/21 09:42:32;;;;;;;;;23.25;22.25;;;;;26.97;42.81;101706.59;5100783;27;46309;-68
2021/07/21 09:44:57;;;;;;;;;20.50;20.25;;;;;27.03;42.33;101708.88;5100628;27;45491;-68
2021/07/21 09:47:23;;;;;;;;;22.75;18.75;;;;;27.09;42.29;101707.56;5101129;27;45281;-67
2021/07/21 09:49:50;;;;;;;;;24.00;21.50;;;;;27.16;42.03;101706.19;5100732;27;45324;-68
2021/07/21 09:52:19;;;;;;;;;24.00;22.25;;;;;27.23;42.50;101703.91;5100757;27;46226;-67
2021/07/21 09:55:09;;;;;;;;;20.25;19.00;;;;;27.30;42.15;101701.66;5100330;27;45198;-67
2021/07/21 09:57:36;;;;;;;;;22.75;21.25;;;;;27.37;41.94;101703.81;5091571;27;45555;-67
2021/07/21 10:00:40;;;;;;;;;19.50;19.25;;;;;27.47;42.21;101703.19;5100424;27;45331;-67
2021/07/21 10:03:10;;;;;;;;;19.50;17.50;;;;;27.53;42.28;101705.44;5037104;28;45375;-68
2021/07/21 10:05:57;;;;;;;;;24.00;22.50;;;;;27.62;42.04;101706.63;5037537;28;45397;-68
2021/07/21 10:08:27;;;;;;;;;26.50;23.00;;;;;27.68;41.97;101700.78;5077840;27;45323;-68
2021/07/21 10:10:52;;;;;;;;;22.00;19.00;;;;;27.74;41.88;101701.22;5100083;27;45489;-68
2021/07/21 10:13:18;;;;;;;;;21.50;21.50;;;;;27.82;41.58;101697.09;5100161;27;47166;-68
2021/07/21 10:15:45;;;;;;;;;24.75;22.00;;;;;27.89;41.88;101699.22;5100277;27;45236;-67
2021/07/21 10:18:16;;;;;;;;;25.00;18.25;;;;;27.98;41.44;101694.16;5100499;27;45272;-67
2021/07/21 10:20:45;;;;;;;;;21.50;20.75;;;;;28.05;41.29;101700.88;5099949;27;45513;-67
2021/07/21 10:23:13;;;;;;;;;24.00;20.25;;;;;28.12;41.83;101690.47;5100291;27;46101;-66
2021/07/21 10:25:39;;;;;;;;;21.00;19.25;;;;;28.20;41.57;101702.44;5100030;27;45468;-67
2021/07/21 10:28:06;;;;;;;;;20.00;19.00;;;;;28.29;41.56;101700.88;5100432;27;45241;-66
2021/07/21 10:30:34;;;;;;;;;23.75;21.25;;;;;28.38;41.29;101699.31;5100236;27;45313;-66
2021/07/21 10:33:01;;;;;;;;;18.50;17.50;;;;;28.48;41.35;101700.34;5081907;27;46194;-66
2021/07/21 10:35:29;;;;;;;;;16.25;15.75;;;;;28.58;41.22;101694.22;5100090;27;45539;-66
2021/07/21 10:37:55;;;;;;;;;25.25;21.75;;;;;28.69;40.60;101697.03;5103825;27;45319;-66
2021/07/21 10:40:23;;;;;;;;;21.25;19.00;;;;;28.80;40.87;101701.63;5103440;27;45297;-66
2021/07/21 10:42:54;;;;;;;;;21.50;17.50;;;;;28.93;41.00;101698.81;5085228;27;46499;-66
2021/07/21 10:45:22;;;;;;;;;18.50;17.50;;;;;29.07;40.75;101695.03;5103377;27;45346;-66
2021/07/21 10:47:54;;;;;;;;;18.25;16.50;;;;;29.24;40.66;101696.44;5103740;27;45405;-66
2021/07/21 10:53:29;;;;;;;;;21.25;17.00;;;;;29.72;40.80;101701.63;5103366;27;46131;-66
2021/07/21 10:59:11;;;;;;;;;17.50;17.00;;;;;30.02;40.68;101697.44;5103277;27;45298;-66
2021/07/21 11:01:26;;;;;;;;;19.75;17.25;;;;;30.95;40.29;101689.72;5103462;27;45379;-67
2021/07/21 11:04:03;;;;;;;;;19.25;16.50;;;;;31.42;40.10;101682.03;5103244;27;47310;-66
2021/07/21 11:06:55;;;;;;;;;18.25;17.50;;;;;32.04;40.18;101681.94;5103167;27;45477;-67
2021/07/21 11:09:22;;;;;;;;;20.50;18.75;;;;;32.53;39.85;101678.44;5081619;27;45591;-67
2021/07/21 11:11:51;;;;;;;;;20.00;16.00;;;;;33.07;40.13;101684.28;5102980;27;45423;-66
2021/07/21 11:14:22;;;;;;;;;20.00;17.25;;;;;33.60;39.69;101681.94;5102898;27;47194;-66
2021/07/21 11:16:50;;;;;;;;;22.25;19.75;;;;;34.13;39.66;101683.94;5103035;27;45494;-66
2021/07/21 11:19:29;;;;;;;;;19.25;17.75;;;;;34.72;39.01;101682.63;5102952;27;45389;-65
2021/07/21 11:21:56;;;;;;;;;17.50;17.25;;;;;35.24;38.60;101684.56;5103022;27;45290;-67